createdAt,value
2019-05-13T00:00:37.421Z,9.75
2019-05-13T00:05:44.763Z,9.83
2019-05-13T00:10:53.988Z,9.83
2019-05-13T00:16:00.448Z,9.84
2019-05-13T00:21:06.263Z,9.82
2019-05-13T00:26:14.095Z,9.79
2019-05-13T00:31:21.409Z,9.79
2019-05-13T00:36:27.283Z,9.79
2019-05-13T00:41:33.832Z,9.77
2019-05-13T00:46:39.978Z,9.79
2019-05-13T00:51:46.611Z,9.81
2019-05-13T00:56:54.837Z,9.85
2019-05-13T01:02:03.676Z,9.85
2019-05-13T01:07:24.421Z,9.76
2019-05-13T01:12:19.425Z,9.66
2019-05-13T01:17:26.459Z,9.60
2019-05-13T01:22:34.385Z,9.53
2019-05-13T01:27:43.987Z,9.39
2019-05-13T01:32:53.850Z,9.39
2019-05-13T01:38:00.416Z,9.34
2019-05-13T01:43:07.462Z,9.30
2019-05-13T01:48:14.590Z,9.24
2019-05-13T01:53:21.432Z,9.11
2019-05-13T01:58:28.450Z,9.11
2019-05-13T02:03:35.425Z,9.04
2019-05-13T02:08:43.975Z,8.98
2019-05-13T02:13:53.764Z,8.92
2019-05-13T02:19:00.368Z,8.83
2019-05-13T02:24:07.456Z,8.76
2019-05-13T02:29:14.568Z,8.68
2019-05-13T02:34:23.155Z,8.57
2019-05-13T02:39:32.918Z,8.57
2019-05-13T02:44:43.481Z,8.50
2019-05-13T02:49:48.585Z,8.41
2019-05-13T02:54:55.457Z,8.35
2019-05-13T03:00:03.941Z,8.28
2019-05-13T03:05:13.680Z,8.22
2019-05-13T03:10:22.406Z,8.17
2019-05-13T03:15:32.914Z,8.14
2019-05-13T03:20:42.861Z,8.03
2019-05-13T03:25:48.469Z,8.03
2019-05-13T03:30:56.952Z,7.98
2019-05-13T03:36:07.575Z,7.96
2019-05-13T03:41:15.587Z,7.93
2019-05-13T03:46:25.551Z,7.92
2019-05-13T03:51:32.827Z,7.92
2019-05-13T03:56:42.640Z,7.92
2019-05-13T04:01:52.444Z,7.91
2019-05-13T04:07:02.694Z,7.93
2019-05-13T04:12:08.597Z,7.98
2019-05-13T04:17:15.467Z,8.10
2019-05-13T04:22:23.200Z,8.10
2019-05-13T04:27:32.674Z,8.17
2019-05-13T04:32:39.437Z,8.24
2019-05-13T04:37:46.447Z,8.32
2019-05-13T04:42:54.080Z,8.41
2019-05-13T04:48:03.311Z,8.51
2019-05-13T04:53:13.707Z,8.60
2019-05-13T04:58:23.359Z,8.73
2019-05-13T05:03:46.124Z,8.83
2019-05-13T05:10:15.848Z,8.92
2019-05-13T05:16:21.994Z,8.99
2019-05-13T05:21:36.733Z,9.08
2019-05-13T05:28:01.961Z,9.21
2019-05-13T05:33:44.559Z,9.32
2019-05-13T05:39:08.570Z,9.61
2019-05-13T05:44:15.586Z,9.74
2019-05-13T05:49:25.231Z,9.91
2019-05-13T05:54:36.733Z,9.91
2019-05-13T05:59:43.693Z,10.08
2019-05-13T06:04:52.070Z,10.29
2019-05-13T06:10:02.275Z,10.29
2019-05-13T06:15:12.189Z,10.42
2019-05-13T06:20:21.178Z,10.78
2019-05-13T06:25:33.748Z,10.78
2019-05-13T06:30:41.463Z,10.85
2019-05-13T06:35:48.095Z,10.99
2019-05-13T06:41:02.645Z,11.07
2019-05-13T06:46:04.417Z,11.15
2019-05-13T06:51:11.688Z,11.25
2019-05-13T06:56:18.667Z,11.34
2019-05-13T07:01:25.576Z,11.73
2019-05-13T07:06:32.612Z,11.88
2019-05-13T07:11:41.671Z,11.97
2019-05-13T07:16:48.435Z,11.97
2019-05-13T07:21:55.432Z,12.11
2019-05-13T07:27:02.613Z,12.28
2019-05-13T07:32:11.995Z,12.65
2019-05-13T07:37:18.577Z,12.68
2019-05-13T07:42:34.737Z,12.88
2019-05-13T07:47:41.970Z,12.88
2019-05-13T07:52:51.510Z,13.03
2019-05-13T07:57:58.421Z,13.11
2019-05-13T08:03:05.431Z,13.42
2019-05-13T08:08:12.573Z,13.70
2019-05-13T08:13:22.463Z,13.98
2019-05-13T08:18:31.683Z,14.47
2019-05-13T08:23:38.465Z,14.52
2019-05-13T08:29:00.041Z,14.52
2019-05-13T08:33:54.405Z,14.76
2019-05-13T08:39:02.670Z,14.52
2019-05-13T08:44:12.360Z,14.31
2019-05-13T08:49:21.977Z,14.31
2019-05-13T08:54:29.423Z,14.58
2019-05-13T08:59:36.443Z,15.04
2019-05-13T09:04:44.851Z,16.09
2019-05-13T09:09:51.625Z,17.79
2019-05-13T09:14:58.866Z,17.87
2019-05-13T09:20:06.834Z,17.87
2019-05-13T09:25:14.075Z,17.47
2019-05-13T09:30:22.310Z,16.79
2019-05-13T09:35:31.595Z,16.65
2019-05-13T09:40:42.094Z,17.61
2019-05-13T09:45:48.444Z,17.73
2019-05-13T09:50:55.585Z,17.73
2019-05-13T09:56:02.717Z,17.29
2019-05-13T10:01:12.396Z,17.29
2019-05-13T10:06:21.860Z,17.15
2019-05-13T10:11:28.566Z,17.31
2019-05-13T10:16:36.253Z,17.44
2019-05-13T10:21:44.970Z,17.25
2019-05-13T10:26:53.067Z,16.69
2019-05-13T10:32:02.767Z,16.32
2019-05-13T10:37:11.326Z,16.52
2019-05-13T10:42:18.573Z,16.80
2019-05-13T10:47:25.597Z,16.80
2019-05-13T10:52:32.456Z,16.04
2019-05-13T10:57:42.324Z,16.04
2019-05-13T11:02:48.462Z,15.92
2019-05-13T11:07:55.561Z,15.92
2019-05-13T11:13:06.021Z,17.56
2019-05-13T11:18:18.983Z,17.56
2019-05-13T11:23:23.299Z,18.49
2019-05-13T11:28:31.732Z,18.07
2019-05-13T11:33:42.223Z,18.07
2019-05-13T11:38:48.577Z,17.82
2019-05-13T11:44:12.043Z,17.21
2019-05-13T11:49:04.578Z,17.16
2019-05-13T11:54:13.824Z,18.15
2019-05-13T11:59:22.033Z,18.15
2019-05-13T12:04:29.426Z,17.75
2019-05-13T12:09:36.466Z,17.86
2019-05-13T12:15:04.870Z,18.92
2019-05-13T12:19:54.324Z,19.40
2019-05-13T12:25:02.191Z,20.40
2019-05-13T12:30:09.598Z,20.31
2019-05-13T12:35:16.576Z,19.03
2019-05-13T12:40:23.600Z,18.64
2019-05-13T12:45:30.441Z,19.05
2019-05-13T12:50:37.566Z,19.65
2019-05-13T12:55:51.840Z,19.71
2019-05-13T13:00:53.806Z,19.71
2019-05-13T13:06:25.677Z,19.94
2019-05-13T13:11:11.772Z,21.12
2019-05-13T13:16:18.768Z,21.12
2019-05-13T13:21:33.222Z,20.26
2019-05-13T13:26:34.498Z,19.57
2019-05-13T13:31:43.370Z,19.37
2019-05-13T13:36:52.644Z,19.50
2019-05-13T13:42:04.889Z,18.76
2019-05-13T13:47:08.560Z,17.63
2019-05-13T13:52:16.582Z,17.63
2019-05-13T13:57:25.619Z,16.83
2019-05-13T14:02:36.900Z,16.83
2019-05-13T14:07:42.407Z,16.57
2019-05-13T14:12:52.686Z,16.44
2019-05-13T14:18:00.253Z,16.51
2019-05-13T14:23:07.588Z,16.51
2019-05-13T14:28:17.629Z,17.07
2019-05-13T14:33:23.450Z,17.07
2019-05-13T14:38:32.679Z,17.86
2019-05-13T14:43:39.465Z,19.02
2019-05-13T14:48:48.091Z,19.15
2019-05-13T14:53:55.392Z,18.52
2019-05-13T14:59:02.771Z,17.88
2019-05-13T15:04:11.983Z,17.41
2019-05-13T15:09:18.043Z,18.19
2019-05-13T15:14:25.554Z,19.36
2019-05-13T15:19:32.692Z,18.39
2019-05-13T15:24:41.299Z,18.39
2019-05-13T15:29:51.934Z,17.91
2019-05-13T15:34:59.089Z,17.39
2019-05-13T15:40:08.285Z,16.94
2019-05-13T15:45:15.613Z,16.84
2019-05-13T15:50:23.255Z,17.00
2019-05-13T15:55:29.440Z,17.00
2019-05-13T16:00:35.310Z,17.10
2019-05-13T16:05:42.516Z,16.92
2019-05-13T16:10:49.495Z,16.59
2019-05-13T16:16:01.325Z,16.36
2019-05-13T16:21:07.703Z,16.70
2019-05-13T16:26:14.611Z,16.78
2019-05-13T16:31:22.296Z,16.34
2019-05-13T16:36:31.363Z,16.06
2019-05-13T16:45:22.081Z,15.77
2019-05-13T16:50:31.333Z,15.63
2019-05-13T16:55:38.549Z,15.35
2019-05-13T17:00:46.802Z,15.17
2019-05-13T17:05:54.974Z,15.03
2019-05-13T17:11:04.183Z,14.77
2019-05-13T17:16:12.004Z,14.47
2019-05-13T17:21:21.150Z,14.47
2019-05-13T17:26:32.522Z,14.35
2019-05-13T17:31:41.677Z,14.42
2019-05-13T17:36:51.901Z,14.71
2019-05-13T17:47:15.858Z,14.65
2019-05-13T17:52:22.694Z,14.44
2019-05-13T17:57:31.914Z,14.38
2019-05-13T18:02:38.468Z,14.38
2019-05-13T18:07:45.565Z,14.42
2019-05-13T18:12:52.585Z,14.48
2019-05-13T18:18:01.610Z,14.42
2019-05-13T18:23:08.582Z,14.42
2019-05-13T18:28:27.478Z,14.36
2019-05-13T18:33:24.445Z,14.36
2019-05-13T18:38:31.491Z,14.23
2019-05-13T18:43:38.476Z,14.04
2019-05-13T18:48:58.088Z,13.83
2019-05-13T18:53:54.436Z,13.66
2019-05-13T18:59:02.025Z,13.30
2019-05-13T19:04:11.431Z,12.98
2019-05-13T19:09:18.484Z,12.69
2019-05-13T19:14:28.071Z,12.52
2019-05-13T19:19:35.465Z,12.40
2019-05-13T19:24:42.445Z,12.30
2019-05-13T19:29:52.182Z,12.19
2019-05-13T19:34:57.342Z,12.08
2019-05-13T19:40:04.611Z,11.94
2019-05-13T19:45:12.662Z,11.82
2019-05-13T19:50:22.351Z,11.70
2019-05-13T19:55:33.691Z,11.59
2019-05-13T20:00:39.580Z,11.56
2019-05-13T20:05:46.512Z,11.55
2019-05-13T20:10:53.581Z,11.47
2019-05-13T20:16:02.290Z,11.34
2019-05-13T20:21:11.165Z,11.34
2019-05-13T20:26:18.604Z,11.26
2019-05-13T20:31:25.669Z,10.98
2019-05-13T20:36:32.617Z,10.98
2019-05-13T20:41:41.388Z,10.61
2019-05-13T20:46:51.923Z,10.61
2019-05-13T20:53:51.914Z,10.32
2019-05-13T20:58:59.026Z,10.21
2019-05-13T21:04:09.263Z,10.09
2019-05-13T21:09:17.253Z,10.01
2019-05-13T21:14:25.762Z,9.90
2019-05-13T21:19:39.231Z,9.76
2019-05-13T21:24:41.276Z,9.62
2019-05-13T21:29:47.374Z,9.47
2019-05-13T21:34:54.435Z,9.33
2019-05-13T21:40:01.563Z,9.22
2019-05-13T21:45:11.210Z,9.01
2019-05-13T21:50:31.111Z,9.01
2019-05-13T21:55:27.572Z,8.93
2019-05-13T22:00:43.147Z,8.90
2019-05-13T22:05:51.565Z,8.82
2019-05-13T22:10:58.577Z,8.90
2019-05-13T22:16:05.598Z,8.98
2019-05-13T22:21:12.455Z,8.98
2019-05-13T22:26:19.594Z,9.09
2019-05-13T22:31:26.471Z,9.31
2019-05-13T22:36:33.445Z,9.31
2019-05-13T22:41:42.108Z,9.40
2019-05-13T22:46:51.589Z,9.52
2019-05-13T22:51:58.461Z,9.59
2019-05-13T22:57:05.502Z,9.66
2019-05-13T23:02:12.579Z,9.70
2019-05-13T23:07:19.559Z,9.72
2019-05-13T23:12:27.582Z,9.69
2019-05-13T23:17:34.498Z,9.60
2019-05-13T23:22:41.623Z,9.60
2019-05-13T23:27:48.451Z,9.38
2019-05-13T23:32:55.457Z,9.38
2019-05-13T23:38:02.580Z,9.08
2019-05-13T23:43:11.333Z,9.08
2019-05-13T23:48:18.475Z,8.92
2019-05-13T23:53:25.450Z,8.92
2019-05-13T23:58:32.576Z,8.88
